createdAt,value
2022-08-30T00:02:16.448Z,100.00
2022-08-30T00:04:43.072Z,100.00
2022-08-30T00:07:10.794Z,100.00
2022-08-30T00:09:37.403Z,100.00
2022-08-30T00:12:04.571Z,100.00
2022-08-30T00:14:31.152Z,100.00
2022-08-30T00:16:57.926Z,100.00
2022-08-30T00:19:25.017Z,100.00
2022-08-30T00:21:51.654Z,100.00
2022-08-30T00:24:18.183Z,100.00
2022-08-30T00:26:44.748Z,100.00
2022-08-30T00:29:11.332Z,100.00
2022-08-30T00:31:37.894Z,100.00
2022-08-30T00:34:05.115Z,100.00
2022-08-30T00:36:31.631Z,100.00
2022-08-30T00:38:58.198Z,100.00
2022-08-30T00:41:24.862Z,100.00
2022-08-30T00:43:51.966Z,100.00
2022-08-30T00:46:18.657Z,100.00
2022-08-30T00:48:49.277Z,100.00
2022-08-30T00:51:17.182Z,100.00
2022-08-30T00:53:48.240Z,100.00
2022-08-30T00:56:15.637Z,100.00
2022-08-30T00:58:51.631Z,100.00
2022-08-30T01:01:18.828Z,100.00
2022-08-30T01:03:46.147Z,100.00
2022-08-30T01:06:15.785Z,100.00
2022-08-30T01:08:43.874Z,100.00
2022-08-30T01:11:12.343Z,100.00
2022-08-30T01:13:39.202Z,100.00
2022-08-30T01:16:06.315Z,100.00
2022-08-30T01:18:35.357Z,100.00
2022-08-30T01:21:08.529Z,100.00
2022-08-30T01:23:38.434Z,100.00
2022-08-30T01:26:06.271Z,100.00
2022-08-30T01:28:34.411Z,100.00
2022-08-30T01:31:01.804Z,100.00
2022-08-30T01:33:28.568Z,100.00
2022-08-30T01:36:02.447Z,100.00
2022-08-30T01:38:43.844Z,100.00
2022-08-30T01:41:15.473Z,100.00
2022-08-30T01:43:42.982Z,100.00
2022-08-30T01:46:11.974Z,100.00
2022-08-30T01:48:40.197Z,100.00
2022-08-30T01:51:11.634Z,100.00
2022-08-30T01:53:39.836Z,100.00
2022-08-30T01:56:07.556Z,100.00
2022-08-30T01:58:35.892Z,100.00
2022-08-30T02:01:07.193Z,100.00
2022-08-30T02:03:35.446Z,100.00
2022-08-30T02:06:07.344Z,100.00
2022-08-30T02:08:34.947Z,100.00
2022-08-30T02:11:02.019Z,100.00
2022-08-30T02:13:30.217Z,100.00
2022-08-30T02:15:57.174Z,100.00
2022-08-30T02:18:25.844Z,100.00
2022-08-30T02:20:52.894Z,100.00
2022-08-30T02:23:19.510Z,100.00
2022-08-30T02:25:46.533Z,100.00
2022-08-30T02:28:15.639Z,100.00
2022-08-30T02:30:45.245Z,100.00
2022-08-30T02:33:11.950Z,100.00
2022-08-30T02:35:38.723Z,100.00
2022-08-30T02:38:05.922Z,100.00
2022-08-30T02:40:32.829Z,100.00
2022-08-30T02:42:59.533Z,100.00
2022-08-30T02:45:26.795Z,100.00
2022-08-30T02:47:53.715Z,100.00
2022-08-30T02:50:20.372Z,100.00
2022-08-30T02:52:48.142Z,100.00
2022-08-30T02:55:16.197Z,100.00
2022-08-30T02:57:44.501Z,100.00
2022-08-30T03:00:14.307Z,100.00
2022-08-30T03:02:41.560Z,100.00
2022-08-30T03:05:11.059Z,100.00
2022-08-30T03:07:37.758Z,100.00
2022-08-30T03:10:04.546Z,100.00
2022-08-30T03:12:32.575Z,100.00
2022-08-30T03:15:01.180Z,100.00
2022-08-30T03:17:27.705Z,100.00
2022-08-30T03:19:54.404Z,100.00
2022-08-30T03:22:21.018Z,100.00
2022-08-30T03:24:47.736Z,100.00
2022-08-30T03:27:14.337Z,100.00
2022-08-30T03:29:40.873Z,100.00
2022-08-30T03:32:08.023Z,100.00
2022-08-30T03:34:34.639Z,100.00
2022-08-30T03:37:01.509Z,100.00
2022-08-30T03:39:28.479Z,100.00
2022-08-30T03:41:55.171Z,100.00
2022-08-30T03:44:22.088Z,100.00
2022-08-30T03:46:49.013Z,100.00
2022-08-30T03:49:16.003Z,100.00
2022-08-30T03:51:42.591Z,100.00
2022-08-30T03:54:09.953Z,100.00
2022-08-30T03:56:38.035Z,100.00
2022-08-30T03:59:05.271Z,100.00
2022-08-30T04:01:32.064Z,100.00
2022-08-30T04:03:58.676Z,100.00
2022-08-30T04:06:25.777Z,100.00
2022-08-30T04:08:53.524Z,100.00
2022-08-30T04:11:20.796Z,100.00
2022-08-30T04:13:49.502Z,100.00
2022-08-30T04:16:16.581Z,100.00
2022-08-30T04:18:43.176Z,100.00
2022-08-30T04:21:13.995Z,100.00
2022-08-30T04:23:40.866Z,100.00
2022-08-30T04:26:08.845Z,100.00
2022-08-30T04:28:36.083Z,100.00
2022-08-30T04:31:15.328Z,100.00
2022-08-30T04:33:42.938Z,100.00
2022-08-30T04:36:10.892Z,100.00
2022-08-30T04:38:39.313Z,100.00
2022-08-30T04:41:16.399Z,100.00
2022-08-30T04:43:45.234Z,100.00
2022-08-30T04:46:13.960Z,100.00
2022-08-30T04:48:40.813Z,100.00
2022-08-30T04:51:10.227Z,100.00
2022-08-30T04:53:37.237Z,100.00
2022-08-30T04:56:09.176Z,100.00
2022-08-30T04:58:35.775Z,100.00
2022-08-30T05:01:02.499Z,100.00
2022-08-30T05:03:29.050Z,100.00
2022-08-30T05:05:55.667Z,100.00
2022-08-30T05:08:24.773Z,100.00
2022-08-30T05:10:52.969Z,100.00
2022-08-30T05:13:26.233Z,100.00
2022-08-30T05:16:04.826Z,100.00
2022-08-30T05:18:31.995Z,100.00
2022-08-30T05:21:28.780Z,100.00
2022-08-30T05:23:57.698Z,100.00
2022-08-30T05:26:33.371Z,100.00
2022-08-30T05:29:00.587Z,100.00
2022-08-30T05:31:31.086Z,100.00
2022-08-30T05:33:58.737Z,100.00
2022-08-30T05:36:27.962Z,100.00
2022-08-30T05:38:55.061Z,100.00
2022-08-30T05:41:23.266Z,100.00
2022-08-30T05:43:58.361Z,100.00
2022-08-30T05:46:26.113Z,100.00
2022-08-30T05:48:52.652Z,100.00
2022-08-30T05:51:21.819Z,100.00
2022-08-30T05:53:49.993Z,100.00
2022-08-30T05:56:20.082Z,100.00
2022-08-30T05:58:47.672Z,100.00
2022-08-30T06:01:25.752Z,100.00
2022-08-30T06:03:53.317Z,100.00
2022-08-30T06:06:20.154Z,100.00
2022-08-30T06:08:49.026Z,100.00
2022-08-30T06:11:19.616Z,100.00
2022-08-30T06:13:47.636Z,100.00
2022-08-30T06:16:16.182Z,100.00
2022-08-30T06:18:42.829Z,100.00
2022-08-30T06:21:17.088Z,100.00
2022-08-30T06:23:44.657Z,100.00
2022-08-30T06:26:11.932Z,100.00
2022-08-30T06:28:38.973Z,100.00
2022-08-30T06:31:07.401Z,100.00
2022-08-30T06:33:34.475Z,100.00
2022-08-30T06:36:10.839Z,100.00
2022-08-30T06:38:37.799Z,100.00
2022-08-30T06:41:12.638Z,100.00
2022-08-30T06:43:39.434Z,100.00
2022-08-30T06:46:12.276Z,100.00
2022-08-30T06:48:38.951Z,100.00
2022-08-30T06:51:06.547Z,100.00
2022-08-30T06:53:34.486Z,100.00
2022-08-30T06:56:04.757Z,100.00
2022-08-30T06:58:32.223Z,100.00
2022-08-30T07:00:59.136Z,100.00
2022-08-30T07:03:28.683Z,100.00
2022-08-30T07:05:56.798Z,100.00
2022-08-30T07:08:25.095Z,100.00
2022-08-30T07:10:54.515Z,100.00
2022-08-30T07:13:24.046Z,100.00
2022-08-30T07:15:51.495Z,100.00
2022-08-30T07:18:37.045Z,100.00
2022-08-30T07:21:11.701Z,100.00
2022-08-30T07:23:38.399Z,100.00
2022-08-30T07:26:07.848Z,100.00
2022-08-30T07:28:37.081Z,100.00
2022-08-30T07:31:03.917Z,100.00
2022-08-30T07:33:30.978Z,100.00
2022-08-30T07:35:58.971Z,100.00
2022-08-30T07:38:28.293Z,100.00
2022-08-30T07:41:01.198Z,100.00
2022-08-30T07:43:28.828Z,100.00
2022-08-30T07:45:58.060Z,100.00
2022-08-30T07:48:24.973Z,100.00
2022-08-30T07:50:55.058Z,100.00
2022-08-30T07:53:25.116Z,100.00
2022-08-30T07:55:52.007Z,100.00
2022-08-30T07:58:19.230Z,100.00
2022-08-30T08:00:46.233Z,100.00
2022-08-30T08:03:13.204Z,100.00
2022-08-30T08:05:55.356Z,100.00
2022-08-30T08:08:23.186Z,100.00
2022-08-30T08:10:49.985Z,100.00
2022-08-30T08:13:16.635Z,100.00
2022-08-30T08:15:44.273Z,100.00
2022-08-30T08:18:11.025Z,100.00
2022-08-30T08:20:38.281Z,100.00
2022-08-30T08:23:04.858Z,100.00
2022-08-30T08:25:31.564Z,100.00
2022-08-30T08:27:59.103Z,100.00
2022-08-30T08:30:26.226Z,100.00
2022-08-30T08:32:52.957Z,100.00
2022-08-30T08:35:20.180Z,100.00
2022-08-30T08:37:46.727Z,100.00
2022-08-30T08:40:18.473Z,100.00
2022-08-30T08:42:47.958Z,100.00
2022-08-30T08:45:23.881Z,100.00
2022-08-30T08:48:02.666Z,100.00
2022-08-30T08:50:32.002Z,100.00
2022-08-30T08:53:45.514Z,100.00
2022-08-30T08:56:12.653Z,100.00
2022-08-30T08:58:51.957Z,100.00
2022-08-30T09:01:21.882Z,100.00
2022-08-30T09:03:49.689Z,100.00
2022-08-30T09:06:41.812Z,100.00
2022-08-30T09:09:13.167Z,100.00
2022-08-30T09:11:41.541Z,100.00
2022-08-30T09:14:16.938Z,100.00
2022-08-30T09:16:56.740Z,100.00
2022-08-30T09:19:38.335Z,100.00
2022-08-30T09:22:28.042Z,100.00
2022-08-30T09:25:20.473Z,100.00
2022-08-30T09:27:49.181Z,100.00
2022-08-30T09:30:18.000Z,100.00
2022-08-30T09:32:52.581Z,100.00
2022-08-30T09:35:26.421Z,100.00
2022-08-30T09:38:04.593Z,100.00
2022-08-30T09:40:37.425Z,100.00
2022-08-30T09:43:20.472Z,100.00
2022-08-30T09:46:04.702Z,100.00
2022-08-30T09:48:34.242Z,100.00
2022-08-30T09:51:11.473Z,100.00
2022-08-30T09:53:50.964Z,100.00
2022-08-30T09:56:40.885Z,100.00
2022-08-30T09:59:46.096Z,100.00
2022-08-30T10:02:19.169Z,100.00
2022-08-30T10:05:20.356Z,100.00
2022-08-30T10:08:04.256Z,100.00
2022-08-30T10:10:51.142Z,100.00
2022-08-30T10:13:29.955Z,100.00
2022-08-30T10:16:03.431Z,100.00
2022-08-30T10:18:29.934Z,100.00
2022-08-30T10:21:19.312Z,100.00
2022-08-30T10:23:51.990Z,100.00
2022-08-30T10:26:43.657Z,100.00
2022-08-30T10:29:16.619Z,100.00
2022-08-30T10:32:06.424Z,100.00
2022-08-30T10:34:42.681Z,100.00
2022-08-30T10:37:11.547Z,100.00
2022-08-30T10:39:43.226Z,100.00
2022-08-30T10:42:22.999Z,100.00
2022-08-30T10:45:01.204Z,100.00
2022-08-30T10:47:34.891Z,100.00
2022-08-30T10:50:16.547Z,100.00
2022-08-30T10:53:09.940Z,100.00
2022-08-30T10:55:49.443Z,100.00
2022-08-30T10:58:18.519Z,100.00
2022-08-30T11:01:13.362Z,100.00
2022-08-30T11:04:01.264Z,100.00
2022-08-30T11:06:46.376Z,100.00
2022-08-30T11:09:31.035Z,100.00
2022-08-30T11:12:40.479Z,100.00
2022-08-30T11:15:15.583Z,100.00
2022-08-30T11:18:02.126Z,100.00
2022-08-30T11:20:39.768Z,100.00
2022-08-30T11:23:36.170Z,100.00
2022-08-30T11:26:12.067Z,100.00
2022-08-30T11:28:46.785Z,100.00
2022-08-30T11:31:23.616Z,100.00
2022-08-30T11:34:00.969Z,100.00
2022-08-30T11:36:37.383Z,100.00
2022-08-30T11:39:07.611Z,100.00
2022-08-30T11:41:47.730Z,100.00
2022-08-30T11:44:31.315Z,100.00
2022-08-30T11:47:00.291Z,100.00
2022-08-30T11:49:35.140Z,100.00
2022-08-30T11:52:29.860Z,100.00
2022-08-30T11:55:27.001Z,100.00
2022-08-30T11:58:05.643Z,100.00
2022-08-30T12:00:37.287Z,100.00
2022-08-30T12:03:29.869Z,100.00
2022-08-30T12:06:05.140Z,100.00
2022-08-30T12:08:33.976Z,100.00
2022-08-30T12:11:11.382Z,100.00
2022-08-30T12:13:37.960Z,100.00
2022-08-30T12:16:09.365Z,100.00
2022-08-30T12:18:47.114Z,100.00
2022-08-30T12:21:43.775Z,100.00
2022-08-30T12:24:23.541Z,100.00
2022-08-30T12:26:51.967Z,99.99
2022-08-30T12:29:23.189Z,97.51
2022-08-30T12:32:08.239Z,94.47
2022-08-30T12:34:58.074Z,94.13
2022-08-30T12:37:37.833Z,94.31
2022-08-30T12:40:16.604Z,94.70
2022-08-30T12:42:56.398Z,91.31
2022-08-30T12:45:31.272Z,89.65
2022-08-30T12:48:05.865Z,89.29
2022-08-30T12:50:44.875Z,89.30
2022-08-30T12:53:14.236Z,86.91
2022-08-30T12:55:59.774Z,86.37
2022-08-30T12:58:52.070Z,84.42
2022-08-30T13:01:28.269Z,86.92
2022-08-30T13:04:19.397Z,88.55
2022-08-30T13:06:57.668Z,85.63
2022-08-30T13:09:32.489Z,85.49
2022-08-30T13:12:00.792Z,87.76
2022-08-30T13:14:44.456Z,85.18
2022-08-30T13:17:28.301Z,82.82
2022-08-30T13:19:57.790Z,84.16
2022-08-30T13:22:36.922Z,80.05
2022-08-30T13:25:06.052Z,86.17
2022-08-30T13:27:37.074Z,83.95
2022-08-30T13:30:13.471Z,85.10
2022-08-30T13:32:43.020Z,81.11
2022-08-30T13:35:11.377Z,81.92
2022-08-30T13:37:49.442Z,81.76
2022-08-30T13:40:18.447Z,80.23
2022-08-30T13:42:45.302Z,81.54
2022-08-30T13:48:01.853Z,76.63
2022-08-30T13:50:28.526Z,80.09
2022-08-30T13:52:57.533Z,80.85
2022-08-30T13:55:24.132Z,79.32
2022-08-30T13:57:54.432Z,77.84
2022-08-30T14:00:22.666Z,76.71
2022-08-30T14:02:54.259Z,76.33
2022-08-30T14:05:52.675Z,77.18
2022-08-30T14:11:12.680Z,75.24
2022-08-30T14:14:14.759Z,70.94
2022-08-30T14:16:28.116Z,72.85
2022-08-30T14:18:56.453Z,74.17
2022-08-30T14:21:24.409Z,74.16
2022-08-30T14:23:56.569Z,71.63
2022-08-30T14:26:32.885Z,69.49
2022-08-30T14:29:04.310Z,71.69
2022-08-30T14:31:32.859Z,71.16
2022-08-30T14:34:04.264Z,68.01
2022-08-30T14:36:33.293Z,65.58
2022-08-30T14:39:00.267Z,70.86
2022-08-30T14:41:27.293Z,70.86
2022-08-30T14:43:53.824Z,72.78
2022-08-30T14:46:22.027Z,71.41
2022-08-30T14:48:50.354Z,69.69
2022-08-30T14:51:19.664Z,73.65
2022-08-30T14:53:47.484Z,71.33
2022-08-30T14:56:17.407Z,74.29
2022-08-30T14:58:51.816Z,69.16
2022-08-30T15:01:20.159Z,71.44
2022-08-30T15:03:47.287Z,69.77
2022-08-30T15:06:14.141Z,70.40
2022-08-30T15:08:41.215Z,68.84
2022-08-30T15:11:10.045Z,65.77
2022-08-30T15:13:37.810Z,67.07
2022-08-30T15:16:11.590Z,63.46
2022-08-30T15:18:38.378Z,62.12
2022-08-30T15:21:05.149Z,61.51
2022-08-30T15:23:31.868Z,62.97
2022-08-30T15:25:59.180Z,63.68
2022-08-30T15:28:26.227Z,61.63
2022-08-30T15:30:53.065Z,63.76
2022-08-30T15:33:19.657Z,59.00
2022-08-30T15:35:46.240Z,58.82
2022-08-30T15:38:12.935Z,55.95
2022-08-30T15:40:40.033Z,60.83
2022-08-30T15:43:06.755Z,65.34
2022-08-30T15:45:33.533Z,63.90
2022-08-30T15:48:01.152Z,67.78
2022-08-30T15:50:28.426Z,65.10
2022-08-30T15:52:55.428Z,64.59
2022-08-30T15:55:22.292Z,68.67
2022-08-30T15:57:48.864Z,66.23
2022-08-30T16:00:15.896Z,67.43
2022-08-30T16:02:42.633Z,67.92
2022-08-30T16:05:10.019Z,70.39
2022-08-30T16:07:40.609Z,69.48
2022-08-30T16:10:08.597Z,69.62
2022-08-30T16:12:35.169Z,70.52
2022-08-30T16:15:01.863Z,76.08
2022-08-30T16:17:28.734Z,81.07
2022-08-30T16:19:58.851Z,86.74
2022-08-30T16:22:26.596Z,88.18
2022-08-30T16:24:53.233Z,94.86
2022-08-30T16:27:21.153Z,100.00
2022-08-30T16:29:48.162Z,100.00
2022-08-30T16:32:17.538Z,100.00
2022-08-30T16:34:44.134Z,100.00
2022-08-30T16:37:10.789Z,100.00
2022-08-30T16:39:37.371Z,100.00
2022-08-30T16:42:06.812Z,100.00
2022-08-30T16:44:33.963Z,99.87
2022-08-30T16:47:01.431Z,99.21
2022-08-30T16:49:28.137Z,100.00
2022-08-30T16:51:55.235Z,100.00
2022-08-30T16:54:22.452Z,100.00
2022-08-30T16:56:49.377Z,100.00
2022-08-30T16:59:16.851Z,100.00
2022-08-30T17:01:44.881Z,100.00
2022-08-30T17:04:13.765Z,100.00
2022-08-30T17:06:45.586Z,98.87
2022-08-30T17:09:12.399Z,99.42
2022-08-30T17:11:40.234Z,97.42
2022-08-30T17:14:08.192Z,100.00
2022-08-30T17:16:36.871Z,100.00
2022-08-30T17:19:06.610Z,100.00
2022-08-30T17:21:34.113Z,100.00
2022-08-30T17:24:02.633Z,100.00
2022-08-30T17:26:35.240Z,100.00
2022-08-30T17:29:01.984Z,100.00
2022-08-30T17:31:31.153Z,100.00
2022-08-30T17:34:03.167Z,100.00
2022-08-30T17:36:35.406Z,100.00
2022-08-30T17:39:11.075Z,100.00
2022-08-30T17:41:49.975Z,100.00
2022-08-30T17:44:25.497Z,100.00
2022-08-30T17:46:53.183Z,100.00
2022-08-30T17:49:19.809Z,100.00
2022-08-30T17:51:47.889Z,100.00
2022-08-30T17:54:15.446Z,100.00
2022-08-30T17:56:42.789Z,100.00
2022-08-30T17:59:14.472Z,100.00
2022-08-30T18:01:42.319Z,100.00
2022-08-30T18:04:10.055Z,100.00
2022-08-30T18:06:36.992Z,100.00
2022-08-30T18:09:06.577Z,100.00
2022-08-30T18:11:35.942Z,100.00
2022-08-30T18:14:03.732Z,100.00
2022-08-30T18:16:33.282Z,100.00
2022-08-30T18:19:04.068Z,100.00
2022-08-30T18:21:30.817Z,100.00
2022-08-30T18:23:57.688Z,100.00
2022-08-30T18:26:25.187Z,100.00
2022-08-30T18:28:52.020Z,100.00
2022-08-30T18:31:18.672Z,100.00
2022-08-30T18:33:47.064Z,100.00
2022-08-30T18:36:14.368Z,100.00
2022-08-30T18:38:42.586Z,100.00
2022-08-30T18:41:13.858Z,100.00
2022-08-30T18:43:42.118Z,100.00
2022-08-30T18:46:12.130Z,100.00
2022-08-30T18:48:39.774Z,100.00
2022-08-30T18:51:11.758Z,100.00
2022-08-30T18:53:38.654Z,100.00
2022-08-30T18:56:08.086Z,100.00
2022-08-30T18:58:35.182Z,100.00
2022-08-30T19:01:03.409Z,100.00
2022-08-30T19:03:33.606Z,100.00
2022-08-30T19:06:06.097Z,100.00
2022-08-30T19:08:35.413Z,100.00
2022-08-30T19:11:05.085Z,100.00
2022-08-30T19:13:34.849Z,100.00
2022-08-30T19:16:01.860Z,100.00
2022-08-30T19:18:28.679Z,100.00
2022-08-30T19:20:55.423Z,100.00
2022-08-30T19:23:23.342Z,100.00
2022-08-30T19:25:51.621Z,100.00
2022-08-30T19:28:20.509Z,100.00
2022-08-30T19:30:47.311Z,100.00
2022-08-30T19:33:14.003Z,100.00
2022-08-30T19:35:40.640Z,100.00
2022-08-30T19:38:07.466Z,100.00
2022-08-30T19:40:34.749Z,100.00
2022-08-30T19:43:02.163Z,100.00
2022-08-30T19:45:31.341Z,100.00
2022-08-30T19:48:00.622Z,100.00
2022-08-30T19:50:27.356Z,100.00
2022-08-30T19:52:55.358Z,100.00
2022-08-30T19:55:28.474Z,100.00
2022-08-30T19:57:57.126Z,100.00
2022-08-30T20:00:24.175Z,100.00
2022-08-30T20:02:51.444Z,100.00
2022-08-30T20:05:19.351Z,100.00
2022-08-30T20:07:51.095Z,100.00
2022-08-30T20:10:20.584Z,100.00
2022-08-30T20:12:49.840Z,100.00
2022-08-30T20:15:17.902Z,100.00
2022-08-30T20:18:03.415Z,100.00
2022-08-30T20:20:36.185Z,100.00
2022-08-30T20:23:04.584Z,100.00
2022-08-30T20:25:31.627Z,100.00
2022-08-30T20:27:59.419Z,100.00
2022-08-30T20:30:27.300Z,100.00
2022-08-30T20:32:53.993Z,100.00
2022-08-30T20:35:20.703Z,100.00
2022-08-30T20:37:47.483Z,100.00
2022-08-30T20:40:16.054Z,100.00
2022-08-30T20:42:45.855Z,100.00
2022-08-30T20:45:15.065Z,100.00
2022-08-30T20:47:43.044Z,100.00
2022-08-30T20:50:13.971Z,100.00
2022-08-30T20:52:41.237Z,100.00
2022-08-30T20:55:09.407Z,100.00
2022-08-30T20:57:36.146Z,100.00
2022-08-30T21:00:04.665Z,100.00
2022-08-30T21:02:31.901Z,100.00
2022-08-30T21:04:59.833Z,100.00
2022-08-30T21:07:26.658Z,100.00
2022-08-30T21:09:54.030Z,100.00
2022-08-30T21:12:20.712Z,100.00
2022-08-30T21:14:47.327Z,100.00
2022-08-30T21:17:14.089Z,100.00
2022-08-30T21:19:43.953Z,100.00
2022-08-30T21:22:11.496Z,100.00
2022-08-30T21:24:38.146Z,100.00
2022-08-30T21:27:06.245Z,100.00
2022-08-30T21:29:33.250Z,100.00
2022-08-30T21:32:00.029Z,100.00
2022-08-30T21:34:26.718Z,100.00
2022-08-30T21:36:53.466Z,100.00
2022-08-30T21:39:26.505Z,100.00
2022-08-30T21:41:56.862Z,100.00
2022-08-30T21:44:26.493Z,100.00
2022-08-30T21:46:54.052Z,100.00
2022-08-30T21:49:23.603Z,100.00
2022-08-30T21:51:53.573Z,100.00
2022-08-30T21:54:21.127Z,100.00
2022-08-30T21:56:50.145Z,100.00
2022-08-30T21:59:18.417Z,100.00
2022-08-30T22:01:46.477Z,100.00
2022-08-30T22:04:14.469Z,100.00
2022-08-30T22:06:48.067Z,100.00
2022-08-30T22:09:16.245Z,100.00
2022-08-30T22:11:44.000Z,100.00
2022-08-30T22:14:12.098Z,100.00
2022-08-30T22:16:40.206Z,100.00
2022-08-30T22:19:07.673Z,100.00
2022-08-30T22:21:36.756Z,100.00
2022-08-30T22:24:04.652Z,100.00
2022-08-30T22:26:33.137Z,100.00
2022-08-30T22:28:59.819Z,100.00
2022-08-30T22:31:26.624Z,100.00
2022-08-30T22:33:54.282Z,100.00
2022-08-30T22:36:32.291Z,100.00
2022-08-30T22:39:01.144Z,100.00
2022-08-30T22:41:31.494Z,100.00
2022-08-30T22:43:58.353Z,100.00
2022-08-30T22:46:34.050Z,100.00
2022-08-30T22:49:03.245Z,100.00
2022-08-30T22:51:29.862Z,100.00
2022-08-30T22:53:56.604Z,100.00
2022-08-30T22:56:25.876Z,100.00
2022-08-30T22:58:53.862Z,100.00
2022-08-30T23:01:24.931Z,100.00
2022-08-30T23:03:52.439Z,100.00
2022-08-30T23:06:19.652Z,100.00
2022-08-30T23:08:46.536Z,100.00
2022-08-30T23:11:13.920Z,100.00
2022-08-30T23:13:41.635Z,100.00
2022-08-30T23:16:09.038Z,100.00
2022-08-30T23:18:37.400Z,100.00
2022-08-30T23:21:15.324Z,100.00
2022-08-30T23:24:01.064Z,100.00
2022-08-30T23:26:46.598Z,100.00
2022-08-30T23:29:32.043Z,100.00
2022-08-30T23:32:18.477Z,100.00
2022-08-30T23:35:04.011Z,100.00
2022-08-30T23:37:52.152Z,100.00
2022-08-30T23:40:39.989Z,100.00
2022-08-30T23:43:26.321Z,100.00
2022-08-30T23:46:11.578Z,100.00
2022-08-30T23:49:04.739Z,100.00
2022-08-30T23:51:49.967Z,100.00
2022-08-30T23:54:35.168Z,100.00
2022-08-30T23:57:20.146Z,100.00
